首页
METAR-TAF:

METAR-TAF

机场 :

Wellsville Municipal Airport (Tarantine Field)

Wellsville, 紐約州, 美国

纬度: 42-06-27N, 经度: 077-59-04W, 海拔: 647米

当前天气观测

该预报发布于17分钟前的03:16 UTC
静风
温度 13°C
湿度 100%
气压 1015 hPa
能見度: 16.1公里
散云层高于200英尺
阴天层高于1000英尺

METAR: KELZ 170316Z AUTO 00000KT 10SM SCT002 OVC010 13/13 A2997 RMK AO2 T01280128 $

时间: 23:33 (03:33 UTC)


TAF: 丢失

超过4000个机场的气象观测和天气预报(METAR&TAF报告)。

可查询的气象台以黄色和红色小点在地图上表示。

将鼠标移到小点上方,可查看气象台名称。

然后点击查看天气观测和预报。

如需切换地图:点击带黑十字的绿色按钮放大地图;点击带横线的绿色按钮缩小地图;或者点击绿色箭头查看邻近地区的地图。


METAR-TAF: